Time;durP1;ratioP1;P1;durP2;ratioP2;P2;SDS_P1;SDS_P2;PMS_P1;PMS_P2;Temp;Humidity;BMP_temperature;BMP_pressure;BME280_temperature;BME280_humidity;BME280_pressure;Samples;Min_cycle;Max_cycle;Signal;HPM_P1;HPM_P2
2022/11/06 00:00:14;;;;;;;10.77;6.10;;;9.70;87.50;;;;;;5002859;28;20036;-44
2022/11/06 00:02:40;;;;;;;7.93;5.10;;;9.70;87.50;;;;;;4997417;28;20371;-44
2022/11/06 00:07:58;;;;;;;12.65;5.40;;;9.70;87.50;;;;;;5009202;28;20069;-44
2022/11/06 00:10:28;;;;;;;11.90;6.57;;;9.70;87.30;;;;;;5013562;28;20172;-43
2022/11/06 00:12:54;;;;;;;8.52;5.43;;;9.70;87.30;;;;;;5013235;28;20048;-44
2022/11/06 00:15:22;;;;;;;10.05;5.43;;;9.70;87.40;;;;;;5001339;28;20046;-44
2022/11/06 00:17:50;;;;;;;8.15;4.97;;;9.70;87.40;;;;;;4998411;28;20093;-45
2022/11/06 00:20:17;;;;;;;7.18;5.47;;;9.70;87.60;;;;;;5012501;28;20520;-43
2022/11/06 00:22:44;;;;;;;11.25;5.88;;;9.70;87.60;;;;;;5025527;28;20490;-44
2022/11/06 00:25:11;;;;;;;10.25;5.80;;;9.70;87.60;;;;;;5013336;28;20464;-44
2022/11/06 00:27:42;;;;;;;9.68;5.70;;;9.70;87.60;;;;;;5006914;28;20026;-43
2022/11/06 00:30:11;;;;;;;8.35;5.05;;;9.70;87.70;;;;;;4993512;28;20141;-44
2022/11/06 00:32:38;;;;;;;7.88;5.05;;;9.60;87.80;;;;;;4994349;28;20034;-46
2022/11/06 00:35:09;;;;;;;9.18;5.57;;;9.70;88.10;;;;;;4993723;28;20023;-46
2022/11/06 00:37:36;;;;;;;12.20;5.90;;;9.70;88.10;;;;;;5004280;28;20029;-45
2022/11/06 00:40:03;;;;;;;10.15;5.50;;;9.70;88.10;;;;;;5011206;28;20100;-45
2022/11/06 00:42:30;;;;;;;9.32;5.60;;;9.60;88.40;;;;;;4995610;28;20053;-45
2022/11/06 00:44:56;;;;;;;9.43;5.40;;;9.60;88.30;;;;;;5013912;28;20026;-44
2022/11/06 00:47:24;;;;;;;12.02;5.72;;;9.60;88.40;;;;;;4996383;28;20041;-47
2022/11/06 00:49:52;;;;;;;8.45;5.32;;;9.60;88.20;;;;;;5009598;28;20034;-45
2022/11/06 00:52:18;;;;;;;9.88;5.20;;;9.60;88.10;;;;;;5010269;28;20088;-46
2022/11/06 00:54:45;;;;;;;8.70;5.07;;;9.60;88.20;;;;;;5013273;28;20371;-45
2022/11/06 00:57:12;;;;;;;7.75;5.32;;;9.70;88.20;;;;;;5009980;28;20041;-44
2022/11/06 00:59:39;;;;;;;11.07;4.88;;;9.60;88.10;;;;;;4994088;28;20049;-44
2022/11/06 01:02:08;;;;;;;8.90;5.57;;;9.70;88.00;;;;;;5000036;28;20105;-44
2022/11/06 01:04:38;;;;;;;12.47;5.50;;;9.70;87.80;;;;;;5011741;28;20030;-44
2022/11/06 01:07:04;;;;;;;6.43;5.18;;;9.70;87.80;;;;;;5007335;28;20034;-44
2022/11/06 01:09:30;;;;;;;8.52;4.57;;;9.70;87.80;;;;;;5011692;28;20431;-45
2022/11/06 01:11:58;;;;;;;11.60;5.80;;;9.80;87.70;;;;;;4992632;28;20069;-44
2022/11/06 01:14:25;;;;;;;10.60;5.45;;;9.80;87.60;;;;;;4976370;28;20038;-44
2022/11/06 01:16:55;;;;;;;9.52;6.25;;;9.80;87.60;;;;;;4992952;28;20137;-43
2022/11/06 01:19:25;;;;;;;9.00;5.60;;;9.80;87.70;;;;;;4983590;28;20026;-46
2022/11/06 01:21:53;;;;;;;9.93;5.65;;;9.80;87.70;;;;;;5009486;28;20348;-44
2022/11/06 01:24:22;;;;;;;10.40;6.38;;;9.80;87.90;;;;;;5006626;28;20392;-44
2022/11/06 01:26:52;;;;;;;9.50;5.22;;;9.70;87.90;;;;;;5012281;28;20029;-43
2022/11/06 01:29:19;;;;;;;9.60;5.63;;;9.70;87.90;;;;;;5010851;28;20029;-44
2022/11/06 01:31:48;;;;;;;8.48;4.82;;;9.80;87.90;;;;;;4978674;28;20054;-44
2022/11/06 01:34:17;;;;;;;6.93;5.10;;;9.70;88.10;;;;;;5003320;28;20034;-43
2022/11/06 01:36:45;;;;;;;8.00;5.30;;;9.80;88.10;;;;;;5002682;28;20065;-44
2022/11/06 01:39:14;;;;;;;8.13;6.03;;;9.80;87.90;;;;;;5011488;28;20036;-44
2022/11/06 01:41:57;;;;;;;11.00;5.78;;;9.80;88.00;;;;;;5004336;28;20062;-44
2022/11/06 01:44:41;;;;;;;8.88;6.28;;;9.80;87.90;;;;;;4992822;28;20109;-43
2022/11/06 01:47:29;;;;;;;11.00;5.55;;;9.90;87.90;;;;;;4997040;28;20022;-44
2022/11/06 01:50:00;;;;;;;11.23;6.13;;;9.80;88.00;;;;;;5012235;28;20029;-45
2022/11/06 01:52:28;;;;;;;8.95;5.88;;;9.80;88.00;;;;;;5005857;28;20093;-43
2022/11/06 01:55:05;;;;;;;15.45;8.18;;;9.80;88.10;;;;;;5012578;28;20129;-43
2022/11/06 01:57:32;;;;;;;11.10;6.03;;;9.90;88.00;;;;;;5002310;28;20622;-44
2022/11/06 01:59:57;;;;;;;11.82;5.90;;;9.80;88.10;;;;;;5004087;28;20022;-44
2022/11/06 02:02:24;;;;;;;10.77;6.47;;;9.80;88.50;;;;;;5008560;28;20030;-46
2022/11/06 02:04:53;;;;;;;10.27;6.45;;;9.70;89.00;;;;;;5012387;28;20038;-49
2022/11/06 02:07:20;;;;;;;10.30;6.43;;;9.70;89.20;;;;;;5025736;28;20458;-46
2022/11/06 02:09:48;;;;;;;11.95;6.80;;;9.70;89.50;;;;;;5011822;28;20034;-48
2022/11/06 02:12:38;;;;;;;14.30;6.80;;;9.70;90.00;;;;;;5007770;28;20093;-49
2022/11/06 02:15:50;;;;;;;10.70;6.38;;;9.60;90.10;;;;;;4992591;28;20088;-46
2022/11/06 02:18:38;;;;;;;11.00;7.10;;;9.60;90.30;;;;;;4957422;28;20117;-54
2022/11/06 02:21:37;;;;;;;11.88;7.78;;;9.50;90.50;;;;;;5003069;28;20030;-56
2022/11/06 02:24:27;;;;;;;10.20;7.05;;;9.50;90.80;;;;;;4996942;28;20309;-53
2022/11/06 02:27:19;;;;;;;11.77;7.53;;;9.40;91.20;;;;;;5015529;28;20038;-55
2022/11/06 02:29:59;;;;;;;12.35;7.10;;;9.40;91.50;;;;;;4994716;28;20026;-53
2022/11/06 02:32:57;;;;;;;12.52;8.68;;;9.40;91.60;;;;;;4995315;28;20364;-50
2022/11/06 02:35:51;;;;;;;10.43;7.90;;;9.30;91.80;;;;;;5001379;28;20446;-51
2022/11/06 02:38:24;;;;;;;11.70;8.30;;;9.30;92.00;;;;;;5004758;28;20056;-48
2022/11/06 02:41:03;;;;;;;13.48;8.63;;;9.30;92.10;;;;;;4977916;28;20458;-49
2022/11/06 02:43:54;;;;;;;17.05;8.70;;;9.30;92.10;;;;;;4991582;28;20815;-50
2022/11/06 02:46:40;;;;;;;13.43;8.73;;;9.20;92.30;;;;;;4986269;28;20073;-49
2022/11/06 02:49:17;;;;;;;11.52;8.20;;;9.20;92.30;;;;;;4997232;28;20033;-49
2022/11/06 02:51:55;;;;;;;13.98;8.48;;;9.20;92.40;;;;;;5014867;28;20116;-49
2022/11/06 02:54:25;;;;;;;16.20;9.60;;;9.20;92.40;;;;;;5015001;28;20049;-49
2022/11/06 02:56:53;;;;;;;12.70;8.95;;;9.20;92.40;;;;;;4995415;28;20042;-50
2022/11/06 02:59:27;;;;;;;12.30;9.10;;;9.20;92.50;;;;;;5015151;28;20057;-48
2022/11/06 03:02:03;;;;;;;13.30;9.43;;;9.20;92.50;;;;;;5014446;28;20030;-48
2022/11/06 03:04:42;;;;;;;20.08;9.07;;;9.20;92.60;;;;;;4997581;28;20113;-48
2022/11/06 03:07:49;;;;;;;11.38;8.82;;;9.20;92.50;;;;;;5015395;28;20037;-51
2022/11/06 03:10:27;;;;;;;13.50;8.30;;;9.20;92.50;;;;;;4995026;28;20038;-50
2022/11/06 03:13:40;;;;;;;14.43;9.07;;;9.20;92.50;;;;;;5006212;28;20150;-51
2022/11/06 03:16:22;;;;;;;14.70;8.70;;;9.20;92.60;;;;;;4981995;28;20121;-49
2022/11/06 03:19:00;;;;;;;14.52;9.05;;;9.20;92.60;;;;;;4997141;28;20038;-50
2022/11/06 03:21:55;;;;;;;13.43;9.25;;;9.20;92.60;;;;;;5012047;28;20113;-62
2022/11/06 03:24:46;;;;;;;13.15;8.50;;;9.10;92.60;;;;;;5007775;28;20034;-62
2022/11/06 03:27:43;;;;;;;12.32;8.40;;;9.20;92.60;;;;;;5008769;28;20372;-58
2022/11/06 03:30:12;;;;;;;9.88;7.82;;;9.20;92.60;;;;;;4995531;28;20038;-52
2022/11/06 03:33:04;;;;;;;15.00;9.07;;;9.20;92.60;;;;;;5004269;28;20026;-52
2022/11/06 03:35:36;;;;;;;19.17;10.00;;;9.20;92.50;;;;;;4989051;28;20051;-52
2022/11/06 03:38:17;;;;;;;12.90;8.30;;;9.20;92.60;;;;;;4995510;28;20026;-54
2022/11/06 03:40:50;;;;;;;13.73;8.38;;;9.20;92.70;;;;;;4994937;28;20077;-49
2022/11/06 03:43:20;;;;;;;12.77;8.48;;;9.20;92.80;;;;;;4978710;28;20104;-51
2022/11/06 03:45:49;;;;;;;12.60;8.30;;;9.10;92.80;;;;;;4994224;28;20027;-52
2022/11/06 03:48:28;;;;;;;11.55;9.25;;;9.20;92.90;;;;;;4994334;28;20057;-63
2022/11/06 03:51:01;;;;;;;14.95;8.20;;;9.20;93.00;;;;;;4995965;28;20402;-62
2022/11/06 03:53:35;;;;;;;14.43;8.98;;;9.20;93.00;;;;;;4994310;28;20050;-60
2022/11/06 03:56:13;;;;;;;11.73;8.55;;;9.20;92.90;;;;;;4978638;28;20034;-62
2022/11/06 03:58:46;;;;;;;11.48;8.30;;;9.20;93.00;;;;;;4978534;28;20030;-63
2022/11/06 04:01:15;;;;;;;10.52;8.52;;;9.20;93.10;;;;;;4977793;28;20421;-58
2022/11/06 04:03:48;;;;;;;14.30;8.48;;;9.20;93.20;;;;;;4979348;28;20117;-58
2022/11/06 04:06:56;;;;;;;11.98;8.68;;;9.20;93.10;;;;;;4970042;28;20030;-56
2022/11/06 04:15:03;;;;;;;12.80;7.85;;;9.20;93.10;;;;;;5002114;28;20326;-62
2022/11/06 04:17:32;;;;;;;12.23;7.78;;;9.10;93.20;;;;;;4987003;28;20549;-63
2022/11/06 04:20:09;;;;;;;10.45;8.68;;;9.20;93.20;;;;;;5007808;28;20026;-63
2022/11/06 04:22:47;;;;;;;12.32;8.18;;;9.10;93.20;;;;;;4990759;28;20121;-59
2022/11/06 04:29:26;;;;;;;11.38;7.97;;;9.10;93.30;;;;;;4999965;28;20116;-54
2022/11/06 04:32:10;;;;;;;14.85;7.72;;;9.00;93.30;;;;;;5014209;28;20025;-50
2022/11/06 04:34:55;;;;;;;15.20;8.60;;;9.10;93.40;;;;;;5011521;28;20033;-53
2022/11/06 04:38:01;;;;;;;10.40;7.90;;;9.10;93.30;;;;;;5009754;28;20026;-55
2022/11/06 04:41:03;;;;;;;9.98;8.02;;;9.10;93.40;;;;;;4994476;28;20077;-51
2022/11/06 04:43:48;;;;;;;10.23;7.75;;;9.10;93.30;;;;;;5004562;28;20502;-50
2022/11/06 04:46:28;;;;;;;10.68;7.75;;;9.10;93.40;;;;;;5006965;28;20038;-50
2022/11/06 04:49:01;;;;;;;11.00;7.75;;;9.10;93.40;;;;;;5008134;28;20037;-49
2022/11/06 04:51:36;;;;;;;11.00;7.38;;;9.00;93.40;;;;;;4987014;28;20103;-48
2022/11/06 04:54:06;;;;;;;13.52;8.48;;;9.10;93.40;;;;;;5003248;28;20026;-50
2022/11/06 04:56:38;;;;;;;10.00;7.80;;;9.10;93.50;;;;;;4986554;28;20443;-50
2022/11/06 04:59:05;;;;;;;9.55;6.97;;;9.10;93.50;;;;;;5019382;28;20041;-49
2022/11/06 05:01:32;;;;;;;10.23;6.90;;;9.10;93.50;;;;;;5007029;28;20025;-49
2022/11/06 05:04:00;;;;;;;10.73;8.27;;;9.10;93.50;;;;;;5010750;28;20026;-49
2022/11/06 05:06:28;;;;;;;11.77;7.40;;;9.20;93.50;;;;;;5011837;28;20034;-49
2022/11/06 05:08:57;;;;;;;10.25;7.80;;;9.20;93.40;;;;;;5012085;28;20044;-50
2022/11/06 05:11:24;;;;;;;10.05;7.47;;;9.20;93.30;;;;;;5006718;28;20029;-49
2022/11/06 05:13:51;;;;;;;10.13;7.88;;;9.20;93.40;;;;;;5013072;28;20531;-52
2022/11/06 05:16:26;;;;;;;12.20;7.80;;;9.20;93.40;;;;;;5011648;28;20522;-48
2022/11/06 05:18:55;;;;;;;8.57;7.47;;;9.10;93.40;;;;;;5012607;28;20133;-48
2022/11/06 05:24:08;;;;;;;12.45;7.30;;;9.20;93.40;;;;;;5010314;28;20351;-48
2022/11/06 05:26:44;;;;;;;12.05;8.20;;;9.20;93.40;;;;;;5013108;28;20030;-48
2022/11/06 05:29:11;;;;;;;8.38;7.10;;;9.20;93.30;;;;;;5006891;28;20101;-49
2022/11/06 05:31:37;;;;;;;12.40;7.85;;;9.20;93.30;;;;;;5011743;28;20080;-48
2022/11/06 05:34:05;;;;;;;13.02;7.88;;;9.20;93.30;;;;;;5008802;28;20022;-47
2022/11/06 05:36:32;;;;;;;9.00;7.03;;;9.20;93.20;;;;;;4992764;28;20042;-48
2022/11/06 05:39:00;;;;;;;10.30;7.93;;;9.20;93.20;;;;;;4985026;28;20037;-48
2022/11/06 05:41:27;;;;;;;12.10;7.85;;;9.20;93.30;;;;;;4992347;28;20033;-47
2022/11/06 05:43:54;;;;;;;9.80;7.18;;;9.20;93.30;;;;;;4993106;28;20023;-47
2022/11/06 05:46:21;;;;;;;8.57;7.03;;;9.20;93.30;;;;;;4993595;28;20034;-48
2022/11/06 05:48:47;;;;;;;13.60;7.25;;;9.10;93.30;;;;;;5006245;28;20089;-47
2022/11/06 05:51:14;;;;;;;12.45;7.32;;;9.10;93.30;;;;;;4993135;28;20081;-47
2022/11/06 05:53:42;;;;;;;16.33;7.38;;;9.10;93.30;;;;;;4993080;28;20062;-48
2022/11/06 05:56:09;;;;;;;14.35;7.75;;;9.20;93.40;;;;;;4992333;28;20030;-47
2022/11/06 05:58:39;;;;;;;9.90;7.30;;;9.10;93.30;;;;;;4993407;28;20022;-47
2022/11/06 06:01:09;;;;;;;12.98;8.00;;;9.10;93.40;;;;;;4998008;28;20045;-47
2022/11/06 06:03:36;;;;;;;12.73;6.97;;;9.20;93.50;;;;;;5010787;28;20053;-48
2022/11/06 06:06:02;;;;;;;16.90;9.50;;;9.20;93.40;;;;;;4997997;28;20042;-47
2022/11/06 06:08:30;;;;;;;10.80;7.28;;;9.20;93.40;;;;;;5012338;28;20067;-47
2022/11/06 06:10:58;;;;;;;13.02;7.60;;;9.20;93.40;;;;;;5011602;28;20359;-49
2022/11/06 06:13:24;;;;;;;12.65;8.77;;;9.10;93.30;;;;;;5011221;28;20073;-48
2022/11/06 06:15:54;;;;;;;18.35;10.73;;;9.10;93.30;;;;;;5014891;28;20109;-47
2022/11/06 06:18:20;;;;;;;;;;;9.20;93.40;;;;;;5015978;28;20117;-47
2022/11/06 06:20:45;;;;;;;12.30;8.80;;;9.10;93.30;;;;;;5015549;28;20008;-47
2022/11/06 06:23:12;;;;;;;14.48;10.88;;;9.20;93.40;;;;;;5013711;28;20029;-48
2022/11/06 06:25:38;;;;;;;14.52;8.77;;;9.20;93.30;;;;;;5016064;28;20029;-47
2022/11/06 06:28:06;;;;;;;13.70;7.63;;;9.20;93.20;;;;;;5011194;28;20056;-47
2022/11/06 06:30:32;;;;;;;12.07;7.47;;;9.20;93.30;;;;;;5015183;28;20018;-48
2022/11/06 06:33:05;;;;;;;12.05;7.60;;;9.20;93.20;;;;;;5015139;28;20018;-48
2022/11/06 06:35:32;;;;;;;13.32;8.40;;;9.20;93.30;;;;;;5011731;28;20030;-49
2022/11/06 06:37:59;;;;;;;12.40;7.65;;;9.20;93.30;;;;;;5011879;28;20139;-47
2022/11/06 06:40:25;;;;;;;11.57;7.13;;;9.20;93.30;;;;;;5015432;28;20447;-46
2022/11/06 06:42:55;;;;;;;11.35;7.45;;;9.20;93.30;;;;;;5012858;28;20030;-46
2022/11/06 06:45:24;;;;;;;10.05;7.07;;;9.20;93.30;;;;;;5012581;28;20112;-51
2022/11/06 06:47:52;;;;;;;11.57;7.03;;;9.30;93.30;;;;;;5007273;28;20046;-50
2022/11/06 06:50:20;;;;;;;12.50;7.00;;;9.20;93.30;;;;;;5003447;28;20022;-46
2022/11/06 06:52:48;;;;;;;8.70;7.50;;;9.30;93.20;;;;;;5001052;28;20094;-47
2022/11/06 06:55:14;;;;;;;11.20;8.93;;;9.20;93.10;;;;;;5004832;28;20084;-47
2022/11/06 06:57:40;;;;;;;15.43;8.40;;;9.20;93.10;;;;;;5010454;28;20042;-47
2022/11/06 07:00:12;;;;;;;15.60;10.15;;;9.20;93.20;;;;;;5003708;28;20029;-46
2022/11/06 07:02:39;;;;;;;14.20;8.65;;;9.20;93.10;;;;;;5008743;28;20018;-48
2022/11/06 07:05:04;;;;;;;17.23;8.70;;;9.20;93.10;;;;;;5028266;28;20529;-45
2022/11/06 07:07:32;;;;;;;13.75;8.45;;;9.20;93.10;;;;;;5015834;28;20034;-46
2022/11/06 07:10:00;;;;;;;15.90;9.00;;;9.20;93.20;;;;;;5011888;28;20080;-46
2022/11/06 07:12:27;;;;;;;13.27;8.77;;;9.20;93.10;;;;;;5006397;28;20104;-46
2022/11/06 07:14:53;;;;;;;11.82;8.68;;;9.30;93.20;;;;;;5007082;28;20030;-47
2022/11/06 07:17:20;;;;;;;13.38;7.95;;;9.30;92.90;;;;;;5007637;28;20054;-50
2022/11/06 07:19:48;;;;;;;16.67;8.75;;;9.20;92.90;;;;;;5000463;28;20080;-47
2022/11/06 07:22:15;;;;;;;12.05;8.52;;;9.30;92.90;;;;;;4995487;28;20022;-46
2022/11/06 07:24:42;;;;;;;12.95;8.38;;;9.30;92.80;;;;;;4995356;28;20046;-45
2022/11/06 07:27:08;;;;;;;12.85;7.93;;;9.30;92.90;;;;;;4995596;28;20049;-47
2022/11/06 07:29:36;;;;;;;14.52;7.82;;;9.30;92.70;;;;;;5010025;28;20030;-45
2022/11/06 07:32:08;;;;;;;8.77;6.68;;;9.30;92.80;;;;;;5007996;28;20448;-45
2022/11/06 07:34:37;;;;;;;13.35;7.30;;;9.30;92.90;;;;;;4997712;28;20046;-46
2022/11/06 07:37:05;;;;;;;8.52;6.70;;;9.40;92.80;;;;;;5010136;28;20081;-45
2022/11/06 07:39:30;;;;;;;10.88;6.25;;;9.40;92.60;;;;;;5007129;28;20033;-49
2022/11/06 07:41:59;;;;;;;8.15;6.28;;;9.40;92.50;;;;;;5002764;28;20018;-45
2022/11/06 07:44:26;;;;;;;12.07;6.57;;;9.40;92.30;;;;;;5004549;28;20034;-47
2022/11/06 07:46:54;;;;;;;14.07;6.57;;;9.40;92.20;;;;;;5012762;28;20144;-46
2022/11/06 07:49:22;;;;;;;9.70;6.75;;;9.40;92.10;;;;;;5012489;28;20080;-44
2022/11/06 07:51:49;;;;;;;11.27;6.25;;;9.40;92.20;;;;;;5003549;28;20022;-46
2022/11/06 07:54:18;;;;;;;10.73;6.20;;;9.30;92.10;;;;;;4997762;28;20037;-47
2022/11/06 07:56:45;;;;;;;14.40;6.63;;;9.40;92.10;;;;;;5015139;28;20081;-45
2022/11/06 07:59:12;;;;;;;10.35;6.78;;;9.30;92.00;;;;;;5003009;28;20045;-45
2022/11/06 08:01:43;;;;;;;10.35;6.07;;;9.40;91.90;;;;;;5006115;28;20026;-47
2022/11/06 08:04:09;;;;;;;12.55;6.70;;;9.40;91.90;;;;;;5003356;28;20037;-45
2022/11/06 08:06:36;;;;;;;12.88;5.72;;;9.40;91.90;;;;;;4994852;28;20032;-44
2022/11/06 08:09:06;;;;;;;9.73;5.63;;;9.50;91.90;;;;;;4996941;28;20105;-46
2022/11/06 08:11:34;;;;;;;10.52;5.63;;;9.50;91.90;;;;;;5007994;28;20095;-45
2022/11/06 08:14:02;;;;;;;7.85;4.95;;;9.60;91.60;;;;;;4995758;28;20087;-44
2022/11/06 08:16:28;;;;;;;10.55;4.53;;;9.70;91.50;;;;;;5005521;28;20060;-44
2022/11/06 08:18:55;;;;;;;7.03;5.20;;;9.70;91.30;;;;;;5005852;28;20026;-45
2022/11/06 08:21:23;;;;;;;9.93;5.35;;;9.80;91.20;;;;;;5005720;28;20048;-45
2022/11/06 08:23:50;;;;;;;11.18;5.30;;;9.70;91.20;;;;;;5002789;28;20026;-45
2022/11/06 08:26:17;;;;;;;9.82;5.75;;;9.70;91.20;;;;;;5001712;28;20068;-45
2022/11/06 08:28:44;;;;;;;10.40;5.60;;;9.70;91.10;;;;;;4990629;28;20042;-45
2022/11/06 08:31:11;;;;;;;7.90;4.72;;;9.70;91.10;;;;;;5011053;28;20045;-44
2022/11/06 08:33:38;;;;;;;9.07;4.53;;;9.80;91.20;;;;;;5013032;28;20066;-46
2022/11/06 08:36:06;;;;;;;11.98;5.38;;;9.90;91.30;;;;;;5014029;28;20101;-45
2022/11/06 08:38:35;;;;;;;10.35;4.78;;;9.90;91.10;;;;;;5012711;28;20029;-45
2022/11/06 08:41:14;;;;;;;11.70;4.25;;;9.90;91.00;;;;;;5011147;28;20034;-45
2022/11/06 08:43:42;;;;;;;13.82;4.80;;;10.00;90.80;;;;;;5013095;28;20120;-45
2022/11/06 08:46:10;;;;;;;13.90;5.18;;;10.00;90.70;;;;;;5012578;28;20044;-48
2022/11/06 08:48:37;;;;;;;9.88;4.63;;;10.00;90.60;;;;;;5005552;28;20515;-44
2022/11/06 08:51:04;;;;;;;10.80;4.10;;;10.00;90.40;;;;;;5012191;28;20026;-44
2022/11/06 08:53:33;;;;;;;9.98;4.60;;;10.00;90.20;;;;;;5008364;28;20471;-45
2022/11/06 08:56:04;;;;;;;10.82;4.22;;;10.00;90.20;;;;;;5011212;28;20105;-44
2022/11/06 08:58:31;;;;;;;8.38;4.85;;;10.10;90.40;;;;;;5012267;28;20444;-44
2022/11/06 09:01:01;;;;;;;11.98;3.92;;;10.10;90.10;;;;;;5013026;28;20420;-44
2022/11/06 09:03:28;;;;;;;10.30;4.93;;;10.00;90.10;;;;;;5011170;28;20073;-45
2022/11/06 09:05:54;;;;;;;11.00;5.00;;;10.10;90.10;;;;;;5011080;28;20121;-44
2022/11/06 09:08:24;;;;;;;8.95;4.65;;;10.10;90.00;;;;;;5013000;28;20161;-45
2022/11/06 09:10:53;;;;;;;12.93;5.35;;;10.00;90.10;;;;;;5008618;28;20065;-45
2022/11/06 09:13:18;;;;;;;14.43;4.53;;;10.10;89.90;;;;;;5009089;28;20061;-45
2022/11/06 09:15:46;;;;;;;10.07;4.93;;;10.10;89.90;;;;;;5010809;28;20463;-47
2022/11/06 09:18:14;;;;;;;18.20;5.60;;;10.20;89.80;;;;;;5005543;28;20077;-48
2022/11/06 09:20:42;;;;;;;8.20;4.45;;;10.30;89.50;;;;;;5011155;28;20037;-47
2022/11/06 09:23:12;;;;;;;9.40;5.10;;;10.40;89.50;;;;;;5012713;28;20028;-45
2022/11/06 09:25:38;;;;;;;9.27;5.68;;;10.40;89.20;;;;;;5011674;28;20084;-48
2022/11/06 09:28:07;;;;;;;12.68;4.88;;;10.40;88.80;;;;;;4993015;28;20025;-46
2022/11/06 09:30:36;;;;;;;11.93;5.80;;;10.50;88.70;;;;;;5009986;28;20458;-46
2022/11/06 09:33:04;;;;;;;10.20;4.72;;;10.50;88.50;;;;;;5010969;28;20359;-46
2022/11/06 09:35:33;;;;;;;8.23;4.70;;;10.60;88.50;;;;;;5011268;28;20030;-45
2022/11/06 09:38:04;;;;;;;9.60;4.40;;;10.60;88.20;;;;;;5009890;28;20448;-45
2022/11/06 09:40:38;;;;;;;6.32;4.20;;;10.50;88.20;;;;;;5015239;28;20031;-45
2022/11/06 09:43:31;;;;;;;10.35;4.30;;;10.50;88.20;;;;;;5004417;28;20045;-47
2022/11/06 09:46:08;;;;;;;11.60;4.60;;;10.50;88.00;;;;;;5007016;28;20026;-45
2022/11/06 09:48:39;;;;;;;7.88;4.13;;;10.50;87.90;;;;;;5004977;28;20093;-47
2022/11/06 09:51:18;;;;;;;9.70;4.75;;;10.50;88.00;;;;;;5010092;28;20034;-49
2022/11/06 09:54:11;;;;;;;11.65;4.20;;;10.50;88.20;;;;;;5008203;28;20030;-46
2022/11/06 09:56:41;;;;;;;8.80;4.03;;;10.50;88.30;;;;;;5025021;28;20037;-45
2022/11/06 09:59:13;;;;;;;7.22;3.63;;;10.60;87.80;;;;;;5009831;28;20378;-46
2022/11/06 10:01:55;;;;;;;7.20;3.65;;;10.60;87.60;;;;;;4994879;28;20065;-47
2022/11/06 10:04:43;;;;;;;8.30;4.07;;;10.60;87.30;;;;;;5008786;28;20109;-46
2022/11/06 10:07:40;;;;;;;9.68;3.92;;;10.70;87.40;;;;;;5011405;28;20040;-46
2022/11/06 10:10:25;;;;;;;8.57;3.40;;;10.70;87.20;;;;;;5002544;28;20046;-49
2022/11/06 10:13:08;;;;;;;8.45;3.40;;;10.80;87.20;;;;;;5006598;28;20125;-46
2022/11/06 10:16:13;;;;;;;7.78;4.47;;;10.80;87.10;;;;;;5010256;28;20018;-45
2022/11/06 10:19:10;;;;;;;9.07;5.07;;;10.90;86.70;;;;;;4997128;28;20070;-45
2022/11/06 10:22:04;;;;;;;9.13;3.67;;;10.90;86.80;;;;;;5008065;28;20042;-46
2022/11/06 10:24:58;;;;;;;9.65;3.97;;;10.90;86.90;;;;;;4984687;28;20569;-45
2022/11/06 10:27:40;;;;;;;10.60;3.85;;;10.90;86.80;;;;;;5008219;28;20064;-45
2022/11/06 10:30:18;;;;;;;7.10;3.30;;;10.90;86.40;;;;;;4987115;28;20475;-46
2022/11/06 10:33:11;;;;;;;5.15;2.97;;;11.00;86.40;;;;;;5009421;28;20038;-46
2022/11/06 10:35:57;;;;;;;5.82;3.38;;;11.00;86.20;;;;;;5008634;28;20026;-45
2022/11/06 10:38:36;;;;;;;8.20;4.13;;;11.00;86.20;;;;;;5002318;28;20029;-45
2022/11/06 10:41:03;;;;;;;6.43;3.47;;;11.20;86.40;;;;;;5006344;28;20033;-46
2022/11/06 10:43:51;;;;;;;10.80;3.78;;;11.30;86.50;;;;;;4994274;28;20065;-46
2022/11/06 10:46:35;;;;;;;9.10;3.22;;;11.40;86.20;;;;;;5010723;28;20413;-48
2022/11/06 10:49:22;;;;;;;8.80;3.40;;;11.40;85.50;;;;;;5005183;28;20030;-45
2022/11/06 10:52:03;;;;;;;5.28;3.15;;;11.50;85.50;;;;;;5012029;28;20037;-49
2022/11/06 10:54:40;;;;;;;7.00;3.05;;;11.60;85.30;;;;;;5006974;28;20038;-46
2022/11/06 10:57:45;;;;;;;10.73;3.55;;;11.60;85.00;;;;;;4994179;28;20041;-47
2022/11/06 11:00:14;;;;;;;6.40;3.13;;;11.70;84.80;;;;;;5005620;28;20022;-47
2022/11/06 11:02:46;;;;;;;7.88;3.30;;;11.70;84.80;;;;;;5012756;28;20832;-46
2022/11/06 11:05:18;;;;;;;7.68;2.78;;;11.70;84.70;;;;;;5011570;28;20037;-47
2022/11/06 11:07:55;;;;;;;8.45;2.33;;;11.80;84.00;;;;;;4993003;28;20045;-45
2022/11/06 11:10:38;;;;;;;12.68;3.10;;;11.80;84.50;;;;;;5014979;28;20030;-45
2022/11/06 11:13:18;;;;;;;6.65;3.20;;;11.80;84.50;;;;;;5010055;28;20612;-45
2022/11/06 11:15:48;;;;;;;8.23;3.25;;;11.80;84.40;;;;;;5011911;28;20614;-46
2022/11/06 11:18:30;;;;;;;6.72;2.80;;;11.90;84.80;;;;;;5012637;28;20116;-46
2022/11/06 11:21:18;;;;;;;7.90;3.15;;;11.80;85.20;;;;;;5013902;28;20459;-46
2022/11/06 11:24:06;;;;;;;8.35;2.85;;;11.90;85.40;;;;;;5012302;28;20095;-46
2022/11/06 11:26:46;;;;;;;5.20;2.72;;;11.90;85.30;;;;;;5013690;28;20036;-45
2022/11/06 11:29:33;;;;;;;6.00;2.28;;;12.00;85.00;;;;;;5012477;28;20048;-47
2022/11/06 11:32:03;;;;;;;7.80;3.90;;;12.10;84.80;;;;;;5027163;28;20092;-51
2022/11/06 11:34:34;;;;;;;7.70;2.70;;;12.20;84.20;;;;;;5014091;28;20022;-45
2022/11/06 11:37:04;;;;;;;6.40;2.47;;;12.30;84.40;;;;;;4995146;28;20034;-47
2022/11/06 11:39:41;;;;;;;10.55;2.88;;;12.20;84.20;;;;;;5008394;28;20036;-46
2022/11/06 11:42:34;;;;;;;4.38;2.10;;;12.10;83.80;;;;;;5005851;28;20676;-46
2022/11/06 11:45:20;;;;;;;5.90;2.05;;;12.00;84.10;;;;;;5015379;28;20083;-45
2022/11/06 11:47:52;;;;;;;5.65;2.38;;;12.00;84.90;;;;;;5012657;28;20087;-45
2022/11/06 11:50:36;;;;;;;7.78;2.65;;;12.00;85.00;;;;;;5012060;28;20758;-44
2022/11/06 11:53:21;;;;;;;4.93;2.20;;;11.90;85.30;;;;;;5010265;28;20391;-45
2022/11/06 11:55:51;;;;;;;8.20;2.60;;;11.90;85.70;;;;;;5011073;28;20486;-46
2022/11/06 11:58:36;;;;;;;7.47;2.33;;;12.00;85.80;;;;;;5013529;28;20038;-45
2022/11/06 12:01:06;;;;;;;6.80;2.75;;;12.10;85.90;;;;;;5002316;28;20034;-45
2022/11/06 12:03:42;;;;;;;6.88;2.53;;;12.30;85.30;;;;;;5010939;28;20045;-45
2022/11/06 12:06:15;;;;;;;5.63;2.25;;;12.40;84.90;;;;;;4997672;28;20029;-47
2022/11/06 12:08:47;;;;;;;6.18;2.60;;;12.50;84.30;;;;;;4997177;28;20034;-46
2022/11/06 12:11:22;;;;;;;5.80;3.45;;;12.70;84.30;;;;;;4993526;28;20089;-45
2022/11/06 12:14:28;;;;;;;8.68;2.40;;;12.70;83.80;;;;;;4993955;28;20041;-46
2022/11/06 12:17:08;;;;;;;5.93;2.95;;;12.60;82.90;;;;;;4994015;28;20039;-47
2022/11/06 12:19:38;;;;;;;6.43;2.35;;;12.50;83.20;;;;;;5009915;28;20451;-46
2022/11/06 12:22:15;;;;;;;8.57;2.95;;;12.40;83.10;;;;;;5011200;28;20041;-46
2022/11/06 12:25:04;;;;;;;8.90;2.20;;;12.40;83.20;;;;;;5013238;28;20041;-46
2022/11/06 12:27:40;;;;;;;8.13;2.20;;;12.40;83.20;;;;;;5006053;28;20042;-48
2022/11/06 12:30:14;;;;;;;8.88;2.58;;;12.40;83.00;;;;;;5001710;28;20600;-47
2022/11/06 12:32:47;;;;;;;9.90;4.38;;;12.40;83.20;;;;;;5012370;28;20057;-47
2022/11/06 12:35:58;;;;;;;6.15;1.90;;;12.40;82.00;;;;;;4997238;28;20022;-46
2022/11/06 12:38:54;;;;;;;4.78;2.08;;;12.20;82.70;;;;;;4985564;28;20611;-46
2022/11/06 12:41:33;;;;;;;5.03;2.40;;;12.20;83.00;;;;;;5002961;28;20042;-47
2022/11/06 12:44:02;;;;;;;5.40;2.08;;;12.20;82.60;;;;;;4999545;28;20371;-46
2022/11/06 12:46:52;;;;;;;6.63;2.38;;;12.20;82.90;;;;;;4994965;28;20982;-46
2022/11/06 12:49:40;;;;;;;6.53;2.45;;;12.20;83.10;;;;;;5013829;28;20030;-45
2022/11/06 12:52:31;;;;;;;7.30;2.80;;;12.20;83.30;;;;;;5013347;28;20335;-46
2022/11/06 12:55:00;;;;;;;5.85;2.25;;;12.20;83.40;;;;;;4998622;28;20672;-46
2022/11/06 12:58:07;;;;;;;8.70;2.63;;;12.20;82.70;;;;;;4993526;28;20411;-47
2022/11/06 13:01:02;;;;;;;6.32;2.28;;;12.30;82.90;;;;;;5009244;28;20053;-49
2022/11/06 13:04:05;;;;;;;5.40;2.22;;;12.30;82.60;;;;;;5006962;28;20033;-46
2022/11/06 13:06:55;;;;;;;4.40;2.20;;;12.30;82.70;;;;;;5004181;28;20034;-46
2022/11/06 13:09:45;;;;;;;8.05;3.83;;;12.20;82.10;;;;;;5007853;28;20360;-47
2022/11/06 13:12:42;;;;;;;7.65;2.47;;;12.30;82.40;;;;;;5011412;28;20034;-46
2022/11/06 13:15:46;;;;;;;10.18;2.13;;;12.30;81.70;;;;;;4999049;28;20052;-46
2022/11/06 13:18:54;;;;;;;5.82;1.95;;;12.30;81.80;;;;;;4999224;28;20045;-48
2022/11/06 13:21:53;;;;;;;5.10;1.70;;;12.30;82.00;;;;;;5009150;28;20451;-46
2022/11/06 13:24:40;;;;;;;3.90;2.30;;;12.40;81.70;;;;;;5003328;28;20026;-45
2022/11/06 13:27:21;;;;;;;7.78;2.53;;;12.40;81.80;;;;;;4997904;28;20058;-46
2022/11/06 13:29:50;;;;;;;7.18;2.65;;;12.40;82.00;;;;;;5002299;28;20045;-46
2022/11/06 13:32:26;;;;;;;6.60;1.83;;;12.40;82.00;;;;;;4997554;28;20034;-48
2022/11/06 13:34:55;;;;;;;7.70;2.08;;;12.40;82.00;;;;;;5010103;28;20119;-47
2022/11/06 13:37:33;;;;;;;5.45;2.10;;;12.50;82.20;;;;;;5005603;28;20038;-46
2022/11/06 13:40:45;;;;;;;6.93;2.05;;;12.50;81.90;;;;;;5003229;28;20128;-50
2022/11/06 13:43:58;;;;;;;4.25;1.95;;;12.50;81.60;;;;;;5005329;28;20034;-47